createdAt,value
2022-11-27T00:00:07.407Z,21.35
2022-11-27T00:00:20.997Z,22.40
2022-11-27T00:00:33.800Z,22.90
2022-11-27T00:00:46.638Z,21.87
2022-11-27T00:00:59.674Z,21.62
2022-11-27T00:01:16.662Z,22.90
2022-11-27T00:01:31.308Z,23.70
2022-11-27T00:01:44.243Z,22.42
2022-11-27T00:01:57.106Z,23.02
2022-11-27T00:02:10.197Z,23.77
2022-11-27T00:02:23.144Z,22.52
2022-11-27T00:02:40.419Z,21.80
2022-11-27T00:03:27.309Z,22.80
2022-11-27T00:03:40.896Z,21.35
2022-11-27T00:03:54.409Z,22.45
2022-11-27T00:04:10.795Z,22.73
2022-11-27T00:04:23.688Z,21.45
2022-11-27T00:04:36.502Z,21.30
2022-11-27T00:04:49.329Z,20.80
2022-11-27T00:05:02.159Z,20.80
2022-11-27T00:05:15.196Z,20.83
2022-11-27T00:05:28.102Z,21.27
2022-11-27T00:06:00.879Z,22.65
2022-11-27T00:06:15.830Z,22.92
2022-11-27T00:06:49.507Z,23.52
2022-11-27T00:07:02.562Z,22.52
2022-11-27T00:07:15.498Z,23.40
2022-11-27T00:07:28.772Z,23.60
2022-11-27T00:08:01.549Z,22.17
2022-11-27T00:08:14.634Z,22.00
2022-11-27T00:09:07.962Z,21.52
2022-11-27T00:09:21.227Z,21.50
2022-11-27T00:09:34.081Z,21.85
2022-11-27T00:09:46.900Z,22.85
2022-11-27T00:09:59.874Z,23.05
2022-11-27T00:10:12.913Z,22.55
2022-11-27T00:10:25.759Z,21.98
2022-11-27T00:10:38.576Z,22.90
2022-11-27T00:10:51.881Z,22.83
2022-11-27T00:11:25.484Z,20.75
2022-11-27T00:11:58.258Z,23.05
2022-11-27T00:12:11.125Z,22.73
2022-11-27T00:12:43.874Z,22.80
2022-11-27T00:12:56.701Z,21.80
2022-11-27T00:13:29.451Z,21.02
2022-11-27T00:14:02.172Z,23.52
2022-11-27T00:14:16.575Z,23.00
2022-11-27T00:14:54.645Z,23.70
2022-11-27T00:15:22.652Z,22.23
2022-11-27T00:15:35.550Z,22.40
2022-11-27T00:16:10.096Z,22.50
2022-11-27T00:16:42.718Z,23.10
2022-11-27T00:17:15.444Z,22.65
2022-11-27T00:17:48.190Z,22.77
2022-11-27T00:18:01.159Z,22.45
2022-11-27T00:18:14.032Z,22.37
2022-11-27T00:18:27.199Z,23.70
2022-11-27T00:18:40.147Z,22.98
2022-11-27T00:19:12.896Z,23.05
2022-11-27T00:19:25.913Z,22.73
2022-11-27T00:19:58.655Z,22.48
2022-11-27T00:20:11.744Z,22.62
2022-11-27T00:20:45.382Z,23.20
2022-11-27T00:21:08.882Z,23.45
2022-11-27T00:21:27.038Z,23.67
2022-11-27T00:21:39.958Z,23.92
2022-11-27T00:21:52.875Z,23.60
2022-11-27T00:22:06.505Z,23.20
2022-11-27T00:22:19.323Z,23.30
2022-11-27T00:22:32.370Z,23.45
2022-11-27T00:22:45.221Z,25.08
2022-11-27T00:22:59.025Z,25.42
2022-11-27T00:23:11.903Z,25.05
2022-11-27T00:23:25.269Z,24.35
2022-11-27T00:23:38.289Z,23.67
2022-11-27T00:24:29.137Z,22.83
2022-11-27T00:25:01.885Z,22.73
2022-11-27T00:25:14.747Z,24.12
2022-11-27T00:25:27.729Z,25.30
2022-11-27T00:26:00.483Z,24.37
2022-11-27T00:26:13.541Z,22.70
2022-11-27T00:26:26.571Z,23.25
2022-11-27T00:26:39.844Z,23.62
2022-11-27T00:26:52.654Z,23.20
2022-11-27T00:27:05.545Z,23.23
2022-11-27T00:27:18.403Z,22.42
2022-11-27T00:27:31.280Z,23.27
2022-11-27T00:27:44.314Z,23.15
2022-11-27T00:27:57.135Z,22.58
2022-11-27T00:28:10.337Z,22.33
2022-11-27T00:28:23.607Z,22.64
2022-11-27T00:29:14.723Z,22.35
2022-11-27T00:29:29.327Z,23.08
2022-11-27T00:30:20.595Z,22.27
2022-11-27T00:30:33.408Z,21.55
2022-11-27T00:30:46.678Z,22.60
2022-11-27T00:31:00.737Z,22.90
2022-11-27T00:31:18.134Z,23.00
2022-11-27T00:31:31.876Z,23.73
2022-11-27T00:31:44.826Z,23.27
2022-11-27T00:31:57.844Z,22.77
2022-11-27T00:32:10.714Z,21.95
2022-11-27T00:32:23.578Z,22.23
2022-11-27T00:32:36.424Z,22.05
2022-11-27T00:32:49.267Z,23.33
2022-11-27T00:33:02.111Z,24.37
2022-11-27T00:33:15.211Z,23.30
2022-11-27T00:33:48.035Z,23.85
2022-11-27T00:34:05.065Z,22.92
2022-11-27T00:34:17.897Z,21.80
2022-11-27T00:34:30.774Z,22.20
2022-11-27T00:35:04.759Z,22.75
2022-11-27T00:35:38.747Z,22.13
2022-11-27T00:35:51.550Z,22.23
2022-11-27T00:36:05.358Z,22.05
2022-11-27T00:36:56.411Z,21.87
2022-11-27T00:37:09.306Z,22.55
2022-11-27T00:37:22.138Z,23.70
2022-11-27T00:37:35.183Z,25.30
2022-11-27T00:37:48.327Z,24.55
2022-11-27T00:38:05.303Z,23.27
2022-11-27T00:38:18.112Z,22.70
2022-11-27T00:38:50.956Z,22.50
2022-11-27T00:39:04.179Z,22.52
2022-11-27T00:39:17.012Z,24.00
2022-11-27T00:40:08.423Z,23.08
2022-11-27T00:40:21.858Z,23.38
2022-11-27T00:40:54.612Z,21.10
2022-11-27T00:41:08.564Z,21.87
2022-11-27T00:41:25.439Z,22.58
2022-11-27T00:41:58.221Z,22.98
2022-11-27T00:42:11.196Z,23.80
2022-11-27T00:42:44.011Z,23.55
2022-11-27T00:42:57.236Z,23.90
2022-11-27T00:43:10.064Z,22.56
2022-11-27T00:43:23.368Z,21.45
2022-11-27T00:43:44.355Z,21.40
2022-11-27T00:44:14.152Z,20.90
2022-11-27T00:44:46.871Z,21.77
2022-11-27T00:45:01.817Z,21.50
2022-11-27T00:45:14.760Z,22.55
2022-11-27T00:45:28.274Z,23.65
2022-11-27T00:46:01.210Z,23.55
2022-11-27T00:46:15.480Z,23.52
2022-11-27T00:46:31.931Z,22.92
2022-11-27T00:46:45.253Z,22.20
2022-11-27T00:46:58.309Z,22.15
2022-11-27T00:47:11.572Z,21.62
2022-11-27T00:47:24.421Z,22.58
2022-11-27T00:47:37.231Z,23.08
2022-11-27T00:47:50.302Z,22.10
2022-11-27T00:48:24.827Z,21.92
2022-11-27T00:48:37.703Z,21.52
2022-11-27T00:49:11.346Z,21.10
2022-11-27T00:49:24.254Z,20.67
2022-11-27T00:49:37.315Z,20.98
2022-11-27T00:49:50.152Z,21.85
2022-11-27T00:50:04.319Z,22.60
2022-11-27T00:50:17.506Z,22.13
2022-11-27T00:50:50.255Z,20.92
2022-11-27T00:51:23.337Z,20.83
2022-11-27T00:51:56.089Z,21.73
2022-11-27T00:52:08.928Z,21.70
2022-11-27T00:52:41.663Z,21.23
2022-11-27T00:52:54.505Z,21.67
2022-11-27T00:53:07.327Z,22.05
2022-11-27T00:53:20.191Z,21.20
2022-11-27T00:53:53.135Z,21.80
2022-11-27T00:54:06.121Z,22.08
2022-11-27T00:54:39.212Z,19.67
2022-11-27T00:54:52.142Z,21.02
2022-11-27T00:55:05.645Z,21.35
2022-11-27T00:55:18.543Z,21.98
2022-11-27T00:55:51.264Z,21.35
2022-11-27T00:56:29.646Z,20.65
2022-11-27T00:57:02.379Z,20.62
2022-11-27T00:57:15.235Z,19.67
2022-11-27T00:57:28.984Z,19.23
2022-11-27T00:58:01.734Z,18.48
2022-11-27T00:58:14.937Z,18.65
2022-11-27T00:58:27.883Z,19.60
2022-11-27T00:58:40.684Z,19.73
2022-11-27T00:58:54.067Z,19.83
2022-11-27T00:59:26.852Z,20.20
2022-11-27T00:59:40.034Z,20.45
2022-11-27T00:59:52.853Z,20.75
2022-11-27T01:00:44.574Z,20.52
2022-11-27T01:01:02.415Z,21.62
2022-11-27T01:01:54.183Z,19.62
2022-11-27T01:02:07.030Z,18.85
2022-11-27T01:02:58.412Z,18.85
2022-11-27T01:03:12.259Z,20.30
2022-11-27T01:03:46.855Z,18.98
2022-11-27T01:04:19.642Z,19.60
2022-11-27T01:04:32.589Z,19.50
2022-11-27T01:04:48.894Z,20.10
2022-11-27T01:05:01.847Z,19.77
2022-11-27T01:05:14.676Z,19.12
2022-11-27T01:05:49.302Z,19.00
2022-11-27T01:06:05.995Z,18.77
2022-11-27T01:06:19.702Z,18.65
2022-11-27T01:06:52.489Z,19.83
2022-11-27T01:07:05.292Z,20.65
2022-11-27T01:07:18.141Z,20.30
2022-11-27T01:07:31.131Z,19.95
2022-11-27T01:07:44.085Z,19.58
2022-11-27T01:07:57.698Z,19.33
2022-11-27T01:08:10.553Z,19.60
2022-11-27T01:08:23.537Z,20.62
2022-11-27T01:08:36.374Z,19.65
2022-11-27T01:09:10.546Z,21.70
2022-11-27T01:09:23.411Z,21.52
2022-11-27T01:09:36.246Z,20.23
2022-11-27T01:09:49.537Z,18.70
2022-11-27T01:10:02.427Z,19.20
2022-11-27T01:10:15.312Z,20.37
2022-11-27T01:10:28.175Z,20.40
2022-11-27T01:10:54.684Z,19.42
2022-11-27T01:11:08.067Z,20.02
2022-11-27T01:11:23.112Z,21.08
2022-11-27T01:11:36.037Z,19.95
2022-11-27T01:11:49.789Z,19.37
2022-11-27T01:12:22.531Z,18.85
2022-11-27T01:12:35.361Z,19.52
2022-11-27T01:13:08.116Z,21.05
2022-11-27T01:13:23.319Z,20.10
2022-11-27T01:13:36.375Z,19.20
2022-11-27T01:13:49.338Z,19.83
2022-11-27T01:14:04.290Z,19.30
2022-11-27T01:14:19.553Z,19.10
2022-11-27T01:14:32.420Z,19.67
2022-11-27T01:14:45.317Z,19.87
2022-11-27T01:14:58.213Z,19.87
2022-11-27T01:15:11.381Z,20.58
2022-11-27T01:15:24.192Z,20.83
2022-11-27T01:16:04.668Z,20.08
2022-11-27T01:16:42.732Z,19.92
2022-11-27T01:16:55.949Z,20.52
2022-11-27T01:17:28.723Z,19.45
2022-11-27T01:17:41.537Z,19.00
2022-11-27T01:17:54.352Z,20.20
2022-11-27T01:18:07.247Z,20.02
2022-11-27T01:18:20.614Z,19.45
2022-11-27T01:18:34.183Z,19.25
2022-11-27T01:18:47.762Z,19.87
2022-11-27T01:19:01.070Z,20.15
2022-11-27T01:19:14.249Z,19.42
2022-11-27T01:19:27.246Z,19.20
2022-11-27T01:19:40.322Z,19.90
2022-11-27T01:20:13.156Z,19.73
2022-11-27T01:20:26.076Z,19.75
2022-11-27T01:20:40.016Z,19.95
2022-11-27T01:20:53.497Z,18.85
2022-11-27T01:21:06.601Z,18.83
2022-11-27T01:21:20.511Z,18.42
2022-11-27T01:21:34.005Z,18.48
2022-11-27T01:21:46.963Z,19.65
2022-11-27T01:22:00.243Z,19.55
2022-11-27T01:22:33.423Z,20.10
2022-11-27T01:23:07.022Z,19.85
2022-11-27T01:23:20.471Z,18.67
2022-11-27T01:23:33.383Z,17.67
2022-11-27T01:23:46.715Z,17.98
2022-11-27T01:23:59.803Z,19.42
2022-11-27T01:24:13.633Z,19.40
2022-11-27T01:25:05.449Z,19.00
2022-11-27T01:25:20.072Z,19.48
2022-11-27T01:25:35.644Z,19.02
2022-11-27T01:25:48.603Z,18.65
2022-11-27T01:26:02.351Z,19.30
2022-11-27T01:26:15.523Z,18.83
2022-11-27T01:26:28.324Z,17.85
2022-11-27T01:26:41.543Z,18.33
2022-11-27T01:26:54.593Z,18.25
2022-11-27T01:27:27.400Z,17.85
2022-11-27T01:28:00.134Z,18.65
2022-11-27T01:28:12.960Z,18.73
2022-11-27T01:28:25.795Z,18.37
2022-11-27T01:28:41.768Z,19.35
2022-11-27T01:28:55.114Z,19.98
2022-11-27T01:29:08.113Z,18.80
2022-11-27T01:29:21.153Z,18.30
2022-11-27T01:29:33.987Z,18.48
2022-11-27T01:30:07.441Z,19.42
2022-11-27T01:30:20.305Z,19.70
2022-11-27T01:30:33.411Z,19.80
2022-11-27T01:31:07.050Z,19.05
2022-11-27T01:31:22.141Z,18.62
2022-11-27T01:31:35.493Z,18.95
2022-11-27T01:32:27.284Z,18.90
2022-11-27T01:32:40.116Z,19.08
2022-11-27T01:32:53.802Z,17.98
2022-11-27T01:33:06.824Z,17.02
2022-11-27T01:33:19.794Z,17.77
2022-11-27T01:33:33.769Z,17.98
2022-11-27T01:33:47.900Z,18.08
2022-11-27T01:34:07.106Z,18.12
2022-11-27T01:34:19.952Z,17.75
2022-11-27T01:34:32.903Z,18.08
2022-11-27T01:35:06.036Z,20.08
2022-11-27T01:35:19.951Z,19.73
2022-11-27T01:35:59.552Z,19.35
2022-11-27T01:36:15.662Z,20.25
2022-11-27T01:36:29.087Z,20.08
2022-11-27T01:36:41.958Z,20.02
2022-11-27T01:36:54.822Z,19.45
2022-11-27T01:37:27.548Z,18.95
2022-11-27T01:37:40.404Z,19.92
2022-11-27T01:38:31.654Z,19.27
2022-11-27T01:38:44.543Z,19.17
2022-11-27T01:38:57.645Z,18.75
2022-11-27T01:39:14.806Z,18.33
2022-11-27T01:39:27.635Z,18.30
2022-11-27T01:40:00.409Z,19.10
2022-11-27T01:40:13.290Z,18.50
2022-11-27T01:41:08.634Z,19.52
2022-11-27T01:41:41.431Z,18.48
2022-11-27T01:41:54.343Z,18.65
2022-11-27T01:42:08.981Z,19.73
2022-11-27T01:42:22.228Z,20.62
2022-11-27T01:42:35.084Z,20.37
2022-11-27T01:42:47.916Z,19.87
2022-11-27T01:43:39.751Z,19.48
2022-11-27T01:44:24.398Z,19.73
2022-11-27T01:44:37.952Z,20.15
2022-11-27T01:45:10.717Z,19.30
2022-11-27T01:45:44.311Z,19.08
2022-11-27T01:45:57.266Z,19.62
2022-11-27T01:46:36.303Z,19.45
2022-11-27T01:46:58.823Z,19.27
2022-11-27T01:47:17.430Z,19.75
2022-11-27T01:47:37.455Z,18.98
2022-11-27T01:48:11.149Z,19.95
2022-11-27T01:48:24.057Z,20.00
2022-11-27T01:48:38.002Z,19.65
2022-11-27T01:48:52.239Z,19.60
2022-11-27T01:49:11.221Z,20.12
2022-11-27T01:49:29.967Z,19.92
2022-11-27T01:49:50.394Z,19.08
2022-11-27T01:50:38.912Z,19.25
2022-11-27T01:51:11.660Z,19.40
2022-11-27T01:52:00.990Z,19.60
2022-11-27T01:52:19.956Z,20.08
2022-11-27T01:52:35.320Z,20.27
2022-11-27T01:52:50.412Z,19.67
2022-11-27T01:53:06.890Z,18.95
2022-11-27T01:53:39.632Z,18.73
2022-11-27T01:53:52.594Z,18.48
2022-11-27T01:54:05.753Z,18.27
2022-11-27T01:54:42.785Z,19.02
2022-11-27T01:55:21.706Z,18.95
2022-11-27T01:55:36.328Z,18.85
2022-11-27T01:56:09.628Z,18.80
2022-11-27T01:57:05.137Z,19.10
2022-11-27T01:57:41.801Z,18.87
2022-11-27T01:57:58.907Z,17.90
2022-11-27T01:58:14.008Z,19.62
2022-11-27T01:58:28.437Z,20.52
2022-11-27T01:58:41.530Z,19.08
2022-11-27T01:58:56.512Z,18.67
2022-11-27T01:59:09.660Z,19.02
2022-11-27T01:59:42.452Z,19.70
2022-11-27T01:59:55.942Z,19.80
2022-11-27T02:00:13.075Z,20.50
2022-11-27T02:00:25.937Z,19.65
2022-11-27T02:00:39.008Z,19.35
2022-11-27T02:01:30.334Z,19.15
2022-11-27T02:01:43.274Z,19.08
2022-11-27T02:01:56.265Z,18.85
2022-11-27T02:02:09.553Z,18.98
2022-11-27T02:02:42.681Z,19.94
2022-11-27T02:02:56.118Z,20.95
2022-11-27T02:03:30.730Z,19.40
2022-11-27T02:03:43.563Z,17.77
2022-11-27T02:03:59.064Z,18.27
2022-11-27T02:04:50.331Z,19.27
2022-11-27T02:05:03.235Z,19.08
2022-11-27T02:05:19.090Z,19.95
2022-11-27T02:05:33.468Z,20.60
2022-11-27T02:05:46.350Z,20.77
2022-11-27T02:05:59.459Z,19.60
2022-11-27T02:06:13.256Z,18.62
2022-11-27T02:06:47.508Z,21.12
2022-11-27T02:07:00.983Z,20.33
2022-11-27T02:07:13.865Z,19.75
2022-11-27T02:07:26.853Z,20.45
2022-11-27T02:07:42.032Z,20.05
2022-11-27T02:08:15.344Z,19.55
2022-11-27T02:08:32.837Z,19.25
2022-11-27T02:09:24.282Z,18.42
2022-11-27T02:09:37.629Z,18.55
2022-11-27T02:09:50.482Z,19.25
2022-11-27T02:10:03.765Z,20.17
2022-11-27T02:10:17.194Z,20.37
2022-11-27T02:10:48.335Z,19.87
2022-11-27T02:11:29.598Z,18.80
2022-11-27T02:11:48.208Z,19.27
2022-11-27T02:12:13.336Z,19.42
2022-11-27T02:12:34.625Z,20.45
2022-11-27T02:13:04.027Z,19.67
2022-11-27T02:13:44.393Z,19.37
2022-11-27T02:14:08.536Z,19.80
2022-11-27T02:14:25.846Z,19.40
2022-11-27T02:14:43.055Z,19.62
2022-11-27T02:15:33.302Z,20.10
2022-11-27T02:15:55.072Z,20.35
2022-11-27T02:16:34.335Z,19.23
2022-11-27T02:16:47.100Z,18.75
2022-11-27T02:17:22.628Z,20.62
2022-11-27T02:18:15.762Z,20.00
2022-11-27T02:18:52.955Z,20.00
2022-11-27T02:19:25.515Z,20.25
2022-11-27T02:20:14.961Z,20.95
2022-11-27T02:20:47.419Z,19.58
2022-11-27T02:21:29.654Z,21.48
2022-11-27T02:22:17.630Z,20.25
2022-11-27T02:22:45.196Z,21.02
2022-11-27T02:23:29.260Z,20.50
2022-11-27T02:24:03.455Z,20.20
2022-11-27T02:24:22.045Z,19.87
2022-11-27T02:24:47.791Z,20.27
2022-11-27T02:25:07.467Z,21.35
2022-11-27T02:25:57.536Z,20.08
2022-11-27T02:26:28.470Z,18.83
2022-11-27T02:27:25.040Z,20.40
2022-11-27T02:28:17.883Z,18.12
2022-11-27T02:29:11.258Z,20.62
2022-11-27T02:29:24.300Z,20.20
2022-11-27T02:29:57.554Z,19.92
2022-11-27T02:30:55.069Z,19.08
2022-11-27T02:31:13.160Z,20.25
2022-11-27T02:31:55.811Z,20.30
2022-11-27T02:32:10.351Z,18.92
2022-11-27T02:32:51.804Z,19.67
2022-11-27T02:33:06.418Z,19.70
2022-11-27T02:33:20.696Z,18.90
2022-11-27T02:33:33.521Z,18.92
2022-11-27T02:33:47.511Z,19.60
2022-11-27T02:34:28.283Z,20.12
2022-11-27T02:35:43.484Z,18.60
2022-11-27T02:36:03.380Z,19.15
2022-11-27T02:36:36.129Z,18.90
2022-11-27T02:36:57.649Z,19.02
2022-11-27T03:13:36.580Z,20.12
2022-11-27T03:14:09.795Z,21.40
2022-11-27T03:14:42.899Z,20.96
2022-11-27T03:14:55.849Z,21.25
2022-11-27T03:15:09.581Z,20.95
2022-11-27T03:15:22.441Z,20.42
2022-11-27T03:16:16.734Z,20.52
2022-11-27T03:16:38.906Z,20.45
2022-11-27T03:17:45.354Z,20.67
2022-11-27T03:18:03.293Z,20.10
2022-11-27T03:18:25.055Z,20.65
2022-11-27T03:18:49.231Z,21.12
2022-11-27T03:19:31.854Z,20.73
2022-11-27T03:20:15.603Z,20.90
2022-11-27T03:20:48.337Z,22.00
2022-11-27T03:21:09.727Z,21.02
2022-11-27T03:22:00.150Z,19.90
2022-11-27T03:22:13.037Z,21.52
2022-11-27T03:22:28.915Z,20.92
2022-11-27T03:22:42.260Z,20.04
2022-11-27T03:22:55.319Z,19.67
2022-11-27T03:23:46.472Z,20.85
2022-11-27T03:23:59.838Z,21.17
2022-11-27T03:24:14.098Z,21.60
2022-11-27T03:24:27.891Z,19.75
2022-11-27T03:24:41.073Z,18.33
2022-11-27T03:24:54.221Z,19.70
2022-11-27T03:25:07.388Z,20.62
2022-11-27T03:25:20.443Z,21.60
2022-11-27T03:25:33.244Z,21.37
2022-11-27T03:25:46.240Z,20.85
2022-11-27T03:25:59.086Z,20.35
2022-11-27T03:26:12.146Z,20.33
2022-11-27T03:27:03.672Z,20.85
2022-11-27T03:27:19.476Z,21.70
2022-11-27T03:28:04.055Z,21.05
2022-11-27T03:28:16.902Z,20.20
2022-11-27T03:28:29.936Z,19.92
2022-11-27T03:28:43.445Z,19.98
2022-11-27T03:28:56.312Z,20.31
2022-11-27T03:29:12.754Z,19.75
2022-11-27T03:29:35.900Z,19.30
2022-11-27T03:29:53.232Z,19.85
2022-11-27T03:30:45.715Z,21.10
2022-11-27T03:30:59.405Z,20.12
2022-11-27T03:31:32.233Z,21.05
2022-11-27T03:31:45.131Z,20.85
2022-11-27T03:31:58.271Z,21.23
2022-11-27T03:32:31.955Z,20.35
2022-11-27T03:32:44.811Z,20.77
2022-11-27T03:32:57.732Z,21.23
2022-11-27T03:33:10.673Z,21.25
2022-11-27T03:33:23.504Z,20.80
2022-11-27T03:34:09.563Z,20.20
2022-11-27T03:34:22.424Z,20.40
2022-11-27T03:34:55.133Z,20.60
2022-11-27T03:35:09.412Z,20.77
2022-11-27T03:35:23.451Z,21.67
2022-11-27T03:36:16.606Z,21.52
2022-11-27T03:36:29.514Z,21.17
2022-11-27T03:36:42.578Z,21.37
2022-11-27T03:37:15.341Z,21.33
2022-11-27T03:37:28.416Z,22.83
2022-11-27T03:37:41.757Z,22.37
2022-11-27T03:37:55.287Z,20.35
2022-11-27T03:38:08.112Z,20.33
2022-11-27T03:38:20.996Z,21.40
2022-11-27T03:38:34.732Z,21.11
2022-11-27T03:39:07.487Z,21.05
2022-11-27T03:39:40.382Z,21.12
2022-11-27T03:40:33.229Z,20.48
2022-11-27T03:41:03.187Z,21.67
2022-11-27T03:42:44.936Z,21.42
2022-11-27T03:43:35.996Z,22.50
2022-11-27T04:23:10.334Z,22.58
2022-11-27T04:23:23.150Z,22.80
2022-11-27T04:23:37.743Z,22.85
2022-11-27T04:23:50.581Z,23.52
2022-11-27T04:24:03.923Z,23.90
2022-11-27T04:24:16.748Z,23.58
2022-11-27T04:24:29.583Z,21.92
2022-11-27T04:24:42.626Z,22.17
2022-11-27T04:24:55.985Z,21.02
2022-11-27T04:25:09.287Z,21.92
2022-11-27T04:25:22.752Z,22.98
2022-11-27T04:25:35.648Z,22.77
2022-11-27T04:25:49.096Z,22.33
2022-11-27T04:26:01.941Z,21.15
2022-11-27T04:26:14.745Z,21.58
2022-11-27T04:26:27.629Z,22.75
2022-11-27T04:27:00.361Z,22.24
2022-11-27T04:27:13.197Z,23.62
2022-11-27T04:27:26.038Z,23.75
2022-11-27T04:27:39.067Z,22.48
2022-11-27T04:27:51.950Z,22.73
2022-11-27T04:28:05.463Z,22.02
2022-11-27T04:28:56.545Z,21.23
2022-11-27T04:29:09.631Z,21.77
2022-11-27T04:29:22.462Z,21.25
2022-11-27T04:29:36.694Z,22.58
2022-11-27T04:29:49.743Z,22.65
2022-11-27T04:30:24.226Z,23.48
2022-11-27T04:31:47.961Z,22.92
2022-11-27T04:32:01.331Z,22.85
2022-11-27T04:32:14.270Z,23.95
2022-11-27T04:32:27.540Z,23.08
2022-11-27T04:32:40.354Z,23.25
2022-11-27T04:32:53.368Z,23.25
2022-11-27T04:33:06.311Z,22.48
2022-11-27T04:33:21.741Z,21.77
2022-11-27T04:33:34.655Z,20.95
2022-11-27T04:34:07.419Z,22.83
2022-11-27T04:34:20.276Z,22.87
2022-11-27T04:34:54.027Z,20.92
2022-11-27T04:35:07.178Z,21.17
2022-11-27T04:35:20.120Z,23.67
2022-11-27T04:35:32.988Z,24.75
2022-11-27T04:35:45.974Z,22.67
2022-11-27T04:36:18.739Z,22.02
2022-11-27T04:36:36.052Z,22.08
2022-11-27T04:36:54.273Z,21.83
2022-11-27T04:37:07.167Z,22.23
2022-11-27T04:37:20.054Z,22.75
2022-11-27T04:37:33.292Z,22.75
2022-11-27T04:37:46.161Z,22.17
2022-11-27T04:37:59.230Z,22.27
2022-11-27T04:38:13.993Z,22.36
2022-11-27T04:38:26.807Z,22.42
2022-11-27T04:38:41.968Z,21.82
2022-11-27T04:38:54.825Z,21.75
2022-11-27T04:40:04.758Z,22.42
2022-11-27T04:40:23.345Z,21.87
2022-11-27T04:40:36.141Z,21.10
2022-11-27T04:41:09.857Z,23.77
2022-11-27T04:41:22.843Z,23.60
2022-11-27T04:41:35.715Z,22.67
2022-11-27T04:41:49.015Z,22.73
2022-11-27T04:42:01.878Z,22.30
2022-11-27T04:42:14.685Z,22.33
2022-11-27T04:42:27.675Z,22.70
2022-11-27T04:42:40.553Z,22.17
2022-11-27T04:42:53.458Z,22.65
2022-11-27T04:43:06.353Z,22.92
2022-11-27T04:43:51.580Z,22.05
2022-11-27T04:44:05.498Z,22.70
2022-11-27T04:44:19.334Z,22.92
2022-11-27T04:44:32.180Z,23.35
2022-11-27T04:45:05.355Z,23.98
2022-11-27T04:45:18.547Z,22.98
2022-11-27T04:45:51.278Z,22.83
2022-11-27T04:46:04.155Z,23.58
2022-11-27T04:46:37.016Z,22.98
2022-11-27T04:46:50.176Z,22.52
2022-11-27T04:47:03.394Z,23.02
2022-11-27T04:47:36.039Z,22.45
2022-11-27T04:47:49.005Z,22.48
2022-11-27T04:48:01.820Z,22.65
2022-11-27T04:48:34.674Z,23.65
2022-11-27T04:49:07.443Z,21.85
2022-11-27T04:49:20.869Z,22.10
2022-11-27T04:49:34.049Z,21.73
2022-11-27T04:49:47.128Z,23.40
2022-11-27T04:50:19.897Z,22.25
2022-11-27T04:50:55.072Z,22.08
2022-11-27T04:51:28.109Z,22.92
2022-11-27T04:52:00.842Z,23.80
2022-11-27T04:52:13.718Z,23.58
2022-11-27T04:52:26.534Z,22.87
2022-11-27T04:52:39.791Z,22.30
2022-11-27T04:52:52.653Z,22.75
2022-11-27T04:53:05.658Z,22.62
2022-11-27T04:53:18.524Z,23.00
2022-11-27T04:53:31.597Z,23.48
2022-11-27T04:53:44.393Z,23.85
2022-11-27T04:53:57.740Z,24.10
2022-11-27T04:54:11.028Z,23.92
2022-11-27T04:54:23.965Z,23.52
2022-11-27T04:54:38.244Z,23.25
2022-11-27T04:55:33.151Z,23.35
2022-11-27T04:56:06.054Z,23.02
2022-11-27T04:56:18.911Z,22.42
2022-11-27T04:56:32.279Z,22.17
2022-11-27T04:56:45.209Z,22.08
2022-11-27T04:56:58.287Z,23.27
2022-11-27T04:57:11.641Z,23.65
2022-11-27T04:57:24.488Z,23.83
2022-11-27T04:57:59.322Z,22.00
2022-11-27T04:58:12.160Z,21.98
2022-11-27T04:58:25.048Z,23.40
2022-11-27T04:58:38.354Z,23.83
2022-11-27T04:58:51.605Z,24.10
2022-11-27T04:59:05.317Z,23.73
2022-11-27T04:59:56.996Z,22.75
2022-11-27T05:00:29.739Z,22.65
2022-11-27T05:01:04.525Z,23.35
2022-11-27T05:01:17.771Z,23.27
2022-11-27T05:01:30.626Z,24.02
2022-11-27T05:01:43.462Z,23.90
2022-11-27T05:01:56.651Z,23.58
2022-11-27T05:02:09.475Z,22.83
2022-11-27T05:02:22.367Z,22.92
2022-11-27T05:02:35.391Z,23.20
2022-11-27T05:02:48.365Z,23.30
2022-11-27T05:03:01.397Z,23.73
2022-11-27T05:03:14.412Z,23.67
2022-11-27T05:03:27.287Z,23.50
2022-11-27T05:04:00.148Z,24.02
2022-11-27T05:04:32.953Z,23.82
2022-11-27T05:04:45.795Z,24.27
2022-11-27T05:04:59.130Z,24.80
2022-11-27T05:05:13.000Z,25.23
2022-11-27T05:05:45.809Z,23.20
2022-11-27T05:05:59.207Z,23.05
2022-11-27T05:06:33.840Z,23.70
2022-11-27T05:07:06.642Z,25.02
2022-11-27T05:07:39.413Z,24.20
2022-11-27T05:07:52.713Z,23.38
2022-11-27T05:08:05.586Z,23.05
2022-11-27T05:08:18.779Z,23.52
2022-11-27T05:08:32.100Z,23.83
2022-11-27T05:08:45.115Z,23.48
2022-11-27T05:09:18.236Z,23.17
2022-11-27T05:09:31.073Z,23.45
2022-11-27T05:10:05.116Z,22.33
2022-11-27T05:10:18.069Z,22.30
2022-11-27T05:11:03.617Z,24.10
2022-11-27T05:11:17.316Z,24.08
2022-11-27T05:11:30.404Z,23.12
2022-11-27T05:11:43.279Z,23.58
2022-11-27T05:12:16.038Z,23.58
2022-11-27T05:12:28.885Z,22.95
2022-11-27T05:12:41.752Z,22.27
2022-11-27T05:12:54.699Z,22.65
2022-11-27T05:13:07.582Z,22.45
2022-11-27T05:13:23.238Z,23.27
2022-11-27T05:13:36.773Z,24.80
2022-11-27T05:14:09.975Z,24.92
2022-11-27T05:15:04.425Z,24.73
2022-11-27T05:15:17.950Z,24.45
2022-11-27T05:15:30.762Z,23.87
2022-11-27T05:15:44.048Z,24.60
2022-11-27T05:15:57.113Z,24.40
2022-11-27T05:16:10.563Z,23.38
2022-11-27T05:16:23.586Z,23.30
2022-11-27T05:16:36.495Z,23.75
2022-11-27T05:16:53.090Z,24.45
2022-11-27T05:17:09.350Z,23.67
2022-11-27T05:17:22.283Z,23.10
2022-11-27T05:17:55.017Z,24.35
2022-11-27T05:18:07.854Z,24.60
2022-11-27T05:18:20.877Z,23.85
2022-11-27T05:18:33.859Z,23.73
2022-11-27T05:18:46.687Z,23.87
2022-11-27T05:18:59.573Z,23.90
2022-11-27T05:19:32.531Z,21.73
2022-11-27T05:19:45.916Z,23.08
2022-11-27T05:20:18.724Z,23.87
2022-11-27T05:20:31.519Z,23.75
2022-11-27T05:20:44.706Z,24.27
2022-11-27T05:20:58.445Z,24.02
2022-11-27T05:21:49.826Z,22.67
2022-11-27T05:22:03.775Z,22.29
2022-11-27T05:22:16.780Z,23.45
2022-11-27T05:22:29.675Z,23.12
2022-11-27T05:22:44.203Z,24.52
2022-11-27T05:22:57.034Z,24.28
2022-11-27T05:23:10.224Z,22.42
2022-11-27T05:23:23.446Z,23.23
2022-11-27T05:23:36.300Z,23.87
2022-11-27T05:23:49.287Z,24.00
2022-11-27T05:24:02.273Z,23.80
2022-11-27T05:24:15.376Z,23.73
2022-11-27T05:24:28.607Z,23.33
2022-11-27T05:24:41.915Z,23.99
2022-11-27T05:24:54.926Z,23.75
2022-11-27T05:25:07.990Z,22.50
2022-11-27T05:25:20.801Z,22.87
2022-11-27T05:25:34.055Z,23.73
2022-11-27T05:25:46.930Z,23.35
2022-11-27T05:25:59.869Z,23.17
2022-11-27T05:26:13.271Z,24.27
2022-11-27T05:26:26.664Z,24.70
2022-11-27T05:27:11.923Z,25.16
2022-11-27T05:27:45.470Z,23.62
2022-11-27T05:28:22.331Z,23.40
2022-11-27T05:28:51.016Z,22.92
2022-11-27T05:29:43.716Z,24.15
2022-11-27T05:29:57.016Z,25.17
2022-11-27T05:30:30.723Z,22.75
2022-11-27T05:30:44.052Z,22.87
2022-11-27T05:30:57.292Z,22.50
2022-11-27T05:31:10.307Z,22.87
2022-11-27T05:31:23.589Z,23.50
2022-11-27T05:31:36.642Z,24.92
2022-11-27T05:31:49.567Z,24.30
2022-11-27T05:32:02.436Z,23.10
2022-11-27T05:32:16.319Z,23.33
2022-11-27T05:32:29.298Z,23.60
2022-11-27T05:32:43.219Z,22.92
2022-11-27T05:32:56.612Z,23.35
2022-11-27T05:33:10.111Z,24.12
2022-11-27T05:33:23.019Z,23.65
2022-11-27T05:33:35.864Z,23.50
2022-11-27T05:33:48.802Z,25.37
2022-11-27T05:34:21.665Z,24.52
2022-11-27T05:34:54.464Z,22.27
2022-11-27T05:35:08.097Z,22.77
2022-11-27T05:35:21.393Z,23.27
2022-11-27T05:35:34.537Z,23.73
2022-11-27T05:36:26.306Z,24.23
2022-11-27T05:36:59.072Z,23.25
2022-11-27T05:37:33.372Z,23.85
2022-11-27T05:38:06.140Z,24.52
2022-11-27T05:38:18.956Z,23.70
2022-11-27T05:38:31.938Z,23.23
2022-11-27T05:38:44.752Z,23.02
2022-11-27T05:38:57.718Z,22.83
2022-11-27T05:39:10.701Z,23.10
2022-11-27T05:39:23.873Z,24.75
2022-11-27T05:39:36.957Z,25.60
2022-11-27T05:39:49.800Z,25.40
2022-11-27T05:40:03.291Z,24.15
2022-11-27T05:40:16.367Z,22.92
2022-11-27T05:40:29.517Z,22.58
2022-11-27T05:40:46.838Z,23.30
2022-11-27T05:40:59.674Z,24.02
2022-11-27T05:41:12.725Z,23.90
2022-11-27T05:41:26.094Z,23.33
2022-11-27T05:41:40.546Z,23.55
2022-11-27T05:41:53.390Z,24.45